Etusivu
METAR-TAF:

METAR-TAF

Lentoasemat :

Alattio, Norja

Alattion lentoasema

Leveyspiiri: 69-59N, Pituuspiiri: 023-22E, korkeus merenpinnasta: 0 m

Tämänhetkinen sää

Tämä raportti tehtiin 39 minuuttia sitten, kello 16.50 UTC
Tuuli 11 kn etelästä/kaakosta
Lämpötila 1°C
Kosteus 69%
Ilmanpaine 1024 hPa
Näkyvyys 10 km tai enemmän
Hajonneita pilviä 2300 ft:n korkeudessa

METAR: ENAT 191650Z 15011KT 9999 BKN023 01/M04 Q1024 RMK WIND 700FT 15015KT

Aika: 19:29 (17:29 UTC)

Sääennuste

Tämä raportti tehtiin 3 tuntia ja 29 minuuttia sitten, kello 14.00 UTC
Ennuste voimassa 19. päivästä klo 15 UTC - 19. päivään klo 22 UTC
Tuuli 9 kn kaakosta
Näkyvyys 10 km tai enemmän
Hajonneita pilviä 2500 ft:n korkeudessa

TAF: ENAT 191400Z 1915/1922 13009KT 9999 BKN025

Säähavainnot ja -ennusteet yli 4000 lentoasemalta (METAR- ja TAF-raportit).

Käytössä olevat sääasemat on merkitty karttaan keltaisilla ja punaisilla pisteillä.

Aseta hiiri pisteen päälle nähdäksesi sääaseman nimen.

Klikkaa sitten nähdäksesi säähavainnot ja -ennusteet.

Kartan vaihtaminen: klikkaa mustalla rastilla varustettuja vihreitä pisteitä, niin voit zoomata sisään; viivalla varustettua vihreää pistettä, niin voit zoomata ulos tai vihreitä nuolia, niin pääset viereisille kartoille.


METAR-TAF: